Time;durP1;ratioP1;P1;durP2;ratioP2;P2;SDS_P1;SDS_P2;PMS_P1;PMS_P2;Temp;Humidity;BMP_temperature;BMP_pressure;BME280_temperature;BME280_humidity;BME280_pressure;Samples;Min_cycle;Max_cycle;Signal;HPM_P1;HPM_P2
2022/04/27 04:32:53;;;;;;;;;22.25;22.25;;;;;11.21;52.24;101790.91;5053389;28;45521;-76
2022/04/27 04:35:19;;;;;;;;;31.00;28.50;;;;;11.23;52.68;101798.88;5053935;28;46037;-75
2022/04/27 04:37:44;;;;;;;;;32.75;23.00;;;;;11.23;52.58;101809.63;5053815;28;45300;-74
2022/04/27 04:40:10;;;;;;;;;27.25;24.50;;;;;11.21;52.96;101808.81;5053943;28;45251;-74
2022/04/27 04:42:35;;;;;;;;;23.75;22.50;;;;;11.12;52.70;101796.56;5053829;28;45701;-75
2022/04/27 04:45:01;;;;;;;;;24.75;24.00;;;;;11.22;52.79;101807.91;5035897;28;45298;-73
2022/04/27 04:47:26;;;;;;;;;25.50;25.50;;;;;11.24;52.50;101808.72;5054063;28;45304;-74
2022/04/27 04:49:52;;;;;;;;;28.00;25.50;;;;;11.21;52.69;101814.19;5023852;28;46209;-75
2022/04/27 04:52:17;;;;;;;;;22.25;22.00;;;;;11.22;52.98;101811.47;5034569;28;45432;-74
2022/04/27 04:54:43;;;;;;;;;27.00;21.25;;;;;11.26;53.01;101820.28;5042329;28;46024;-74
2022/04/27 04:57:08;;;;;;;;;30.00;24.00;;;;;11.27;53.22;101824.72;5033836;28;45513;-76
2022/04/27 04:59:33;;;;;;;;;28.25;25.50;;;;;11.24;53.04;101822.13;5034089;28;45374;-73
2022/04/27 05:01:59;;;;;;;;;30.25;26.00;;;;;11.18;53.29;101814.28;5033405;28;45517;-73
2022/04/27 05:04:24;;;;;;;;;31.25;25.25;;;;;11.20;53.29;101821.38;5033603;28;45570;-73
2022/04/27 05:06:49;;;;;;;;;28.75;25.00;;;;;11.22;53.26;101832.94;5035655;28;45569;-74
2022/04/27 05:09:15;;;;;;;;;34.00;25.00;;;;;11.00;53.15;101794.25;5036818;28;46279;-73
2022/04/27 05:11:40;;;;;;;;;27.50;25.00;;;;;10.98;53.78;101810.41;5036965;28;45348;-79
2022/04/27 05:14:05;;;;;;;;;30.00;29.00;;;;;11.09;54.04;101825.28;5019193;28;45330;-73
2022/04/27 05:16:33;;;;;;;;;26.50;24.50;;;;;11.11;53.85;101823.44;5036406;28;45380;-74
2022/04/27 05:18:58;;;;;;;;;25.00;25.00;;;;;11.07;54.18;101825.34;5036725;28;45383;-73
2022/04/27 05:21:24;;;;;;;;;30.25;24.75;;;;;11.00;54.00;101816.59;5037749;28;45286;-75
2022/04/27 05:23:50;;;;;;;;;30.50;26.75;;;;;11.10;53.71;101841.34;5057004;28;45490;-73
2022/04/27 05:26:16;;;;;;;;;26.50;22.75;;;;;11.11;53.59;101839.56;5042788;28;46645;-74
2022/04/27 05:34:09;;;;;;;;;29.25;27.00;;;;;11.12;54.22;101852.06;5036649;28;45537;-73
2022/04/27 05:36:34;;;;;;;;;32.00;28.00;;;;;11.09;53.95;101850.31;5036416;28;45930;-75
2022/04/27 05:39:00;;;;;;;;;36.50;33.00;;;;;11.13;53.98;101852.00;5036422;28;46039;-73
2022/04/27 05:41:25;;;;;;;;;28.00;27.25;;;;;11.12;54.08;101857.41;5036893;28;45337;-77
2022/04/27 05:43:51;;;;;;;;;25.25;21.00;;;;;11.16;53.75;101861.75;5036348;28;45392;-75
2022/04/27 05:46:16;;;;;;;;;29.25;28.75;;;;;11.15;54.05;101868.91;5036441;28;45258;-73
2022/04/27 05:48:42;;;;;;;;;29.00;24.50;;;;;11.11;54.01;101859.22;5035864;28;45516;-74
2022/04/27 05:51:07;;;;;;;;;33.25;30.75;;;;;11.03;53.97;101850.53;5036602;28;45332;-75
2022/04/27 05:53:32;;;;;;;;;29.50;27.00;;;;;11.07;54.13;101865.59;5038608;28;45366;-77
2022/04/27 05:55:58;;;;;;;;;33.25;28.50;;;;;11.16;54.03;101877.84;5029862;28;45166;-76
2022/04/27 05:58:24;;;;;;;;;32.25;30.50;;;;;11.18;54.41;101874.22;5036323;28;45451;-77
2022/04/27 06:00:50;;;;;;;;;35.00;28.75;;;;;11.20;53.84;101871.47;5037128;28;45440;-75
2022/04/27 06:03:15;;;;;;;;;28.50;23.75;;;;;11.24;54.24;101884.75;5016790;28;45384;-75
2022/04/27 06:05:41;;;;;;;;;36.50;35.25;;;;;11.19;54.02;101875.09;5035586;28;45411;-77
2022/04/27 06:08:07;;;;;;;;;29.50;25.25;;;;;11.25;54.15;101877.56;5036162;28;46168;-76
2022/04/27 06:10:32;;;;;;;;;27.50;27.50;;;;;11.30;54.25;101887.28;5036475;28;45368;-77
2022/04/27 06:12:58;;;;;;;;;37.00;30.75;;;;;11.32;54.03;101885.38;5018770;28;45265;-77
2022/04/27 06:15:23;;;;;;;;;32.25;29.25;;;;;11.34;53.76;101888.91;5036398;28;45525;-76
2022/04/27 06:17:49;;;;;;;;;35.00;31.50;;;;;11.16;53.81;101857.25;5035334;28;46214;-78
2022/04/27 06:20:14;;;;;;;;;36.50;30.75;;;;;11.26;53.58;101864.13;5036126;28;45167;-78
2022/04/27 06:22:40;;;;;;;;;35.25;30.25;;;;;11.44;53.65;101894.88;5047287;28;45238;-76
2022/04/27 06:25:06;;;;;;;;;33.25;30.75;;;;;11.46;53.69;101903.78;5048947;28;45503;-77
2022/04/27 06:27:31;;;;;;;;;40.50;33.00;;;;;11.44;53.51;101897.56;5047747;28;46650;-76
2022/04/27 06:29:57;;;;;;;;;36.50;33.50;;;;;11.49;53.63;101905.47;5029573;28;45370;-78
2022/04/27 06:32:23;;;;;;;;;35.75;30.75;;;;;11.48;53.11;101891.19;5031296;28;45444;-78
2022/04/27 06:34:48;;;;;;;;;30.75;27.50;;;;;11.59;53.63;101912.31;5035930;28;45249;-77
2022/04/27 06:37:13;;;;;;;;;33.50;29.00;;;;;11.60;53.36;101914.06;5035799;28;46294;-78
2022/04/27 06:39:40;;;;;;;;;38.25;30.00;;;;;11.51;53.70;101890.19;5035847;28;45352;-77
2022/04/27 06:42:06;;;;;;;;;33.00;29.75;;;;;11.62;53.40;101915.78;5018085;28;45397;-76
2022/04/27 06:44:34;;;;;;;;;40.50;32.75;;;;;11.68;53.41;101920.09;5035746;28;45356;-78
2022/04/27 06:46:59;;;;;;;;;46.00;34.25;;;;;11.71;53.55;101920.00;5027086;28;46351;-78
2022/04/27 06:49:25;;;;;;;;;28.50;27.50;;;;;11.73;53.31;101920.84;5035313;28;45258;-76
2022/04/27 06:51:50;;;;;;;;;25.50;23.25;;;;;11.78;53.64;101921.59;5035660;28;45468;-78
2022/04/27 06:54:15;;;;;;;;;29.75;26.00;;;;;11.71;53.42;101904.75;5031756;28;45486;-78
2022/04/27 06:56:41;;;;;;;;;33.75;30.50;;;;;11.80;53.25;101924.22;5034611;28;45401;-76
2022/04/27 06:59:06;;;;;;;;;31.25;27.50;;;;;11.84;52.74;101923.19;5023900;28;45307;-78
2022/04/27 07:01:32;;;;;;;;;31.50;29.75;;;;;11.89;52.75;101938.25;5042261;28;45460;-78
2022/04/27 07:04:06;;;;;;;;;41.50;33.50;;;;;11.86;52.28;101926.72;5035378;28;45392;-78
2022/04/27 07:06:31;;;;;;;;;33.50;29.50;;;;;11.80;53.26;101908.13;5034967;28;47139;-78
2022/04/27 07:08:57;;;;;;;;;39.25;33.50;;;;;11.80;53.13;101903.63;5017285;28;45366;-76
2022/04/27 07:11:22;;;;;;;;;32.25;27.75;;;;;11.98;52.50;101931.69;5035337;28;45298;-77
2022/04/27 07:13:47;;;;;;;;;37.00;31.75;;;;;12.00;52.49;101929.81;5035160;28;45499;-76
2022/04/27 07:16:12;;;;;;;;;30.75;26.25;;;;;11.91;52.96;101905.97;5034984;28;45423;-77
2022/04/27 07:18:38;;;;;;;;;43.00;35.75;;;;;12.05;53.09;101922.50;5034354;28;54052;-78
2022/04/27 07:21:05;;;;;;;;;41.75;32.75;;;;;12.18;53.19;101948.03;5034312;28;58263;-77
2022/04/27 07:23:30;;;;;;;;;28.75;28.75;;;;;12.23;52.51;101937.13;5053301;28;45610;-77
2022/04/27 07:25:56;;;;;;;;;44.50;38.00;;;;;12.26;52.47;101945.09;5041046;28;45393;-77
2022/04/27 07:28:21;;;;;;;;;40.25;33.75;;;;;12.22;52.24;101933.56;5039432;28;63542;-79
2022/04/27 07:30:47;;;;;;;;;42.00;36.50;;;;;12.24;51.78;101944.28;5017221;28;45463;-77
2022/04/27 07:33:12;;;;;;;;;39.00;33.50;;;;;12.16;51.90;101923.03;5034884;28;45451;-78
2022/04/27 07:35:37;;;;;;;;;37.75;31.25;;;;;12.13;52.20;101909.69;5034477;28;45415;-76
2022/04/27 07:38:03;;;;;;;;;43.00;34.25;;;;;12.17;51.88;101911.31;5034802;28;45265;-76
2022/04/27 07:40:28;;;;;;;;;41.75;37.00;;;;;12.38;52.10;101944.69;5035052;28;45356;-77
2022/04/27 07:42:55;;;;;;;;;45.25;39.50;;;;;12.42;51.96;101946.31;5034981;28;45675;-78
2022/04/27 07:45:20;;;;;;;;;42.25;32.75;;;;;12.44;51.80;101948.03;5034877;28;45972;-75
2022/04/27 07:47:46;;;;;;;;;37.25;33.50;;;;;12.50;52.43;101944.28;5034946;28;45285;-77
2022/04/27 07:50:14;;;;;;;;;43.00;35.50;;;;;12.51;51.74;101937.94;5034850;28;45416;-77
2022/04/27 07:52:40;;;;;;;;;39.00;33.75;;;;;12.61;51.70;101951.94;5041498;28;45352;-76
2022/04/27 07:55:07;;;;;;;;;42.75;32.75;;;;;12.67;52.26;101946.38;5046769;28;45442;-77
2022/04/27 07:57:33;;;;;;;;;39.50;35.25;;;;;12.73;51.79;101952.41;5034880;28;45428;-76
2022/04/27 08:00:00;;;;;;;;;45.00;35.50;;;;;12.74;51.38;101940.72;5034928;28;45458;-77
2022/04/27 08:02:26;;;;;;;;;39.50;37.25;;;;;12.79;51.56;101936.03;5035012;28;45318;-77
2022/04/27 08:04:51;;;;;;;;;34.25;30.50;;;;;12.95;51.39;101946.22;5034707;28;46708;-77
2022/04/27 08:07:17;;;;;;;;;34.25;30.25;;;;;13.00;51.95;101945.16;5034899;28;45526;-78
2022/04/27 08:09:42;;;;;;;;;36.50;32.50;;;;;12.99;51.39;101946.06;5034689;28;45396;-77
2022/04/27 08:12:07;;;;;;;;;35.50;31.00;;;;;13.10;51.45;101949.22;5034615;28;49145;-75
2022/04/27 08:14:34;;;;;;;;;33.50;29.50;;;;;13.11;50.85;101952.81;5034426;28;47299;-76
2022/04/27 08:17:01;;;;;;;;;33.00;31.00;;;;;13.14;50.92;101948.22;5016235;28;45391;-77
2022/04/27 08:19:26;;;;;;;;;45.00;34.25;;;;;13.15;50.58;101941.91;5034604;28;45380;-77
2022/04/27 08:21:54;;;;;;;;;40.25;33.75;;;;;13.23;50.84;101950.59;5042320;28;45314;-76
2022/04/27 08:24:21;;;;;;;;;37.75;30.75;;;;;13.30;51.20;101956.59;5053636;28;46110;-76
2022/04/27 08:26:46;;;;;;;;;39.00;35.00;;;;;13.38;51.07;101956.31;5041320;28;45261;-78
2022/04/27 08:29:12;;;;;;;;;43.75;35.50;;;;;13.37;50.68;101960.81;5032678;28;45296;-76
2022/04/27 08:31:37;;;;;;;;;37.25;31.75;;;;;13.47;50.79;101966.75;5033644;28;57535;-78
2022/04/27 08:34:03;;;;;;;;;33.00;31.00;;;;;13.51;50.82;101952.22;5033768;28;45460;-78
2022/04/27 08:36:28;;;;;;;;;39.50;32.50;;;;;13.52;50.37;101945.91;5034371;28;45277;-77
2022/04/27 08:38:53;;;;;;;;;36.25;33.00;;;;;13.66;50.86;101950.75;5034247;28;45366;-79
2022/04/27 08:41:19;;;;;;;;;38.00;32.00;;;;;13.63;50.54;101949.03;5017695;28;45887;-78
2022/04/27 08:43:44;;;;;;;;;40.75;32.25;;;;;13.75;50.46;101958.47;5037532;28;45421;-77
2022/04/27 08:46:09;;;;;;;;;42.75;33.50;;;;;13.77;50.47;101961.97;5037608;28;45317;-79
2022/04/27 08:48:35;;;;;;;;;43.50;35.00;;;;;13.79;50.31;101949.31;5037354;28;45467;-77
2022/04/27 08:51:03;;;;;;;;;39.25;35.50;;;;;13.88;49.75;101955.19;5037401;28;49061;-78
2022/04/27 08:53:28;;;;;;;;;49.00;33.50;;;;;13.74;49.83;101921.66;5039606;28;45997;-78
2022/04/27 08:55:55;;;;;;;;;42.75;35.50;;;;;13.97;50.12;101960.22;5037979;28;45483;-78
2022/04/27 08:58:23;;;;;;;;;44.50;33.25;;;;;14.03;49.60;101957.28;5037604;28;45206;-77
2022/04/27 09:00:49;;;;;;;;;35.00;32.25;;;;;14.11;49.61;101958.81;5037349;28;45615;-78
2022/04/27 09:03:21;;;;;;;;;34.00;30.75;;;;;14.10;49.52;101954.34;5037434;28;46079;-77
2022/04/27 09:05:55;;;;;;;;;41.50;36.75;;;;;14.16;49.45;101956.78;5037340;28;45349;-77
2022/04/27 09:08:23;;;;;;;;;48.50;34.50;;;;;14.20;49.57;101958.44;5037357;28;45372;-76
2022/04/27 09:10:49;;;;;;;;;39.00;34.25;;;;;14.18;49.33;101953.09;5037298;28;45550;-77
2022/04/27 09:13:14;;;;;;;;;34.75;30.00;;;;;14.20;49.50;101947.63;5037089;28;46325;-78
2022/04/27 09:15:40;;;;;;;;;43.75;36.00;;;;;14.32;49.33;101961.47;5019050;28;45398;-78
2022/04/27 09:21:00;;;;;;;;;40.00;32.25;;;;;14.45;49.05;101964.56;5036583;28;45398;-76
2022/04/27 09:23:37;;;;;;;;;33.50;32.00;;;;;14.51;49.39;101964.31;5043730;28;45483;-77
2022/04/27 09:26:22;;;;;;;;;36.25;34.00;;;;;14.56;49.88;101961.41;5024627;28;45664;-78
2022/04/27 09:28:51;;;;;;;;;45.75;36.00;;;;;14.60;49.23;101953.13;5038325;28;45335;-76
2022/04/27 09:31:30;;;;;;;;;41.50;35.00;;;;;14.73;49.51;101967.81;5036247;28;45221;-78
2022/04/27 09:34:03;;;;;;;;;41.75;34.50;;;;;14.73;48.62;101957.03;5036124;28;46220;-78
2022/04/27 09:36:29;;;;;;;;;35.75;33.00;;;;;14.76;48.82;101958.72;5036737;28;45557;-78
2022/04/27 09:38:57;;;;;;;;;36.75;32.50;;;;;14.81;48.76;101956.69;5036837;28;45420;-77
2022/04/27 09:41:40;;;;;;;;;39.00;35.25;;;;;14.85;48.67;101958.31;5036556;28;45382;-77
2022/04/27 09:44:06;;;;;;;;;43.00;37.75;;;;;14.84;48.40;101947.56;5036496;28;46622;-77
2022/04/27 09:46:31;;;;;;;;;36.75;33.50;;;;;14.89;48.72;101961.75;5036593;28;45324;-77
2022/04/27 09:49:09;;;;;;;;;36.50;34.25;;;;;14.96;48.70;101961.44;5036337;28;45328;-77
2022/04/27 09:51:36;;;;;;;;;44.00;36.25;;;;;14.99;48.79;101965.78;5036394;28;45456;-78
2022/04/27 09:54:02;;;;;;;;;42.75;34.00;;;;;15.03;48.47;101952.09;5033391;28;46060;-76
2022/04/27 09:56:38;;;;;;;;;30.50;29.75;;;;;15.10;48.57;101950.88;5034027;28;45305;-77
2022/04/27 09:59:09;;;;;;;;;48.00;34.00;;;;;15.12;48.33;101948.97;5036568;28;45178;-77
2022/04/27 10:01:36;;;;;;;;;45.50;35.00;;;;;15.22;49.14;101937.75;5036525;28;45472;-78
2022/04/27 10:04:06;;;;;;;;;39.75;32.25;;;;;15.30;48.48;101933.75;5036746;28;46452;-77
2022/04/27 10:06:32;;;;;;;;;46.00;35.00;;;;;15.35;48.08;101936.22;5036555;28;45788;-77
2022/04/27 10:09:03;;;;;;;;;37.75;34.25;;;;;15.46;47.75;101933.91;5036661;28;45285;-77
2022/04/27 10:11:31;;;;;;;;;38.50;32.25;;;;;15.55;47.71;101929.91;5036285;28;45339;-78
2022/04/27 10:13:56;;;;;;;;;39.00;33.50;;;;;15.59;47.38;101932.38;5036067;28;46239;-77
2022/04/27 10:16:25;;;;;;;;;38.00;32.50;;;;;15.61;47.77;101911.56;5017881;28;45671;-77
2022/04/27 10:18:51;;;;;;;;;36.75;32.25;;;;;15.65;47.53;101918.56;5036015;28;45328;-78
2022/04/27 10:21:39;;;;;;;;;40.50;33.75;;;;;15.73;47.84;101915.53;5036226;28;45234;-78
2022/04/27 10:24:06;;;;;;;;;43.50;33.50;;;;;15.69;46.86;101905.78;5048358;28;46252;-78
2022/04/27 10:26:32;;;;;;;;;31.75;29.50;;;;;15.74;47.06;101914.53;5041695;28;46420;-78
2022/04/27 10:29:00;;;;;;;;;42.50;34.25;;;;;15.79;46.87;101901.69;5037567;28;45467;-77
2022/04/27 10:31:40;;;;;;;;;36.00;32.25;;;;;15.91;46.49;101901.06;5035495;28;45287;-78
2022/04/27 10:34:26;;;;;;;;;39.50;30.25;;;;;16.03;46.62;101895.06;5035357;28;45931;-77
2022/04/27 10:36:56;;;;;;;;;35.00;31.00;;;;;16.10;46.60;101882.09;5035297;28;45510;-78
2022/04/27 10:39:27;;;;;;;;;35.75;31.00;;;;;16.03;46.69;101854.47;5036194;28;45251;-77
2022/04/27 10:41:55;;;;;;;;;41.00;35.75;;;;;16.38;45.89;101886.97;5036064;28;45309;-78
2022/04/27 10:44:21;;;;;;;;;39.50;33.75;;;;;16.38;45.96;101877.03;5035528;28;45348;-77
2022/04/27 10:46:47;;;;;;;;;39.75;34.00;;;;;16.47;46.22;101883.78;5035818;28;45274;-77
2022/04/27 10:49:28;;;;;;;;;39.25;33.00;;;;;16.36;46.22;101851.88;5035654;28;45567;-78
2022/04/27 10:52:11;;;;;;;;;39.25;33.00;;;;;16.68;45.34;101879.97;5035194;28;45533;-78
2022/04/27 10:54:39;;;;;;;;;34.75;31.75;;;;;16.79;45.02;101887.53;5021104;28;46121;-77
2022/04/27 10:57:14;;;;;;;;;34.75;28.25;;;;;16.89;44.44;101889.66;5035750;28;45281;-76
2022/04/27 10:59:47;;;;;;;;;34.25;30.25;;;;;16.99;43.38;101882.78;5036147;28;45428;-77
2022/04/27 11:02:32;;;;;;;;;33.50;30.00;;;;;17.09;42.77;101885.00;5035414;28;45602;-79
2022/04/27 11:04:58;;;;;;;;;32.75;27.75;;;;;17.07;43.08;101866.13;5036043;28;46062;-79
2022/04/27 11:07:29;;;;;;;;;27.25;26.50;;;;;17.23;43.61;101869.72;5037958;28;45313;-79
2022/04/27 11:10:15;;;;;;;;;28.50;25.50;;;;;17.25;43.14;101854.25;5055464;28;45487;-77
2022/04/27 11:12:46;;;;;;;;;33.75;28.75;;;;;17.29;43.42;101838.69;5037540;28;45638;-82
2022/04/27 11:15:14;;;;;;;;;30.25;27.25;;;;;17.46;43.18;101844.03;5036803;28;48028;-82
2022/04/27 11:17:40;;;;;;;;;32.75;30.50;;;;;17.55;42.67;101848.91;5055418;28;45423;-83
2022/04/27 11:20:30;;;;;;;;;27.75;26.50;;;;;17.81;43.01;101869.16;5055295;28;45363;-81
2022/04/27 11:22:57;;;;;;;;;27.75;25.25;;;;;17.93;41.81;101873.88;5026602;28;46109;-82
2022/04/27 11:25:25;;;;;;;;;32.00;28.75;;;;;17.93;40.36;101845.84;5045306;28;45213;-81
2022/04/27 11:27:50;;;;;;;;;27.25;21.50;;;;;17.98;40.24;101831.03;5045308;28;45431;-80
2022/04/27 11:30:17;;;;;;;;;28.00;25.50;;;;;18.12;39.52;101849.22;5030890;28;45485;-81
2022/04/27 11:32:46;;;;;;;;;25.75;24.50;;;;;18.17;40.09;101846.22;5035259;28;45637;-81
2022/04/27 11:35:12;;;;;;;;;23.00;18.75;;;;;18.31;40.52;101855.28;5035373;28;45675;-82
2022/04/27 11:37:37;;;;;;;;;25.75;24.00;;;;;18.27;39.29;101831.16;5035378;28;45269;-82
2022/04/27 11:40:14;;;;;;;;;20.25;17.75;;;;;18.41;39.76;101856.47;5034861;28;45526;-80
2022/04/27 11:42:44;;;;;;;;;20.00;18.50;;;;;18.45;39.07;101855.34;5016758;28;47307;-81
2022/04/27 11:45:11;;;;;;;;;24.00;21.00;;;;;18.39;38.57;101828.53;5045352;28;45553;-82
2022/04/27 11:47:37;;;;;;;;;21.00;20.00;;;;;18.54;38.57;101843.03;5037151;28;46402;-81
2022/04/27 11:50:04;;;;;;;;;26.00;23.25;;;;;18.69;37.97;101835.81;5055398;28;45347;-82
2022/04/27 11:52:31;;;;;;;;;24.00;22.00;;;;;18.84;38.79;101827.56;5050212;28;45606;-82
2022/04/27 11:55:11;;;;;;;;;25.50;23.00;;;;;19.00;38.98;101834.72;5020804;28;47229;-81
2022/04/27 11:57:39;;;;;;;;;24.00;21.00;;;;;19.05;39.00;101819.03;5033672;28;45411;-81
2022/04/27 12:00:06;;;;;;;;;25.25;22.25;;;;;19.21;37.88;101838.81;5017538;28;45366;-83
2022/04/27 12:02:33;;;;;;;;;28.50;23.00;;;;;19.22;37.40;101816.94;5017943;28;45698;-81
2022/04/27 12:04:59;;;;;;;;;23.75;21.25;;;;;19.56;37.14;101837.38;5017717;28;47377;-81
2022/04/27 12:07:25;;;;;;;;;23.75;22.00;;;;;19.72;36.44;101826.38;5038846;28;45383;-80
2022/04/27 12:09:57;;;;;;;;;20.00;19.00;;;;;19.69;36.53;101823.84;5033998;28;45236;-80
2022/04/27 12:12:23;;;;;;;;;20.00;19.25;;;;;19.47;36.09;101786.34;5016606;28;45377;-82
2022/04/27 12:14:49;;;;;;;;;19.25;18.00;;;;;19.71;36.65;101811.03;5015497;28;46764;-80
2022/04/27 12:17:45;;;;;;;;;22.00;20.75;;;;;19.84;36.77;101814.66;5034100;28;45399;-80
2022/04/27 12:20:36;;;;;;;;;23.75;20.25;;;;;19.98;36.25;101822.78;5038807;28;45482;-82
2022/04/27 12:23:14;;;;;;;;;22.25;21.00;;;;;19.99;35.67;101794.56;5052737;28;45614;-80
2022/04/27 12:25:53;;;;;;;;;19.50;19.50;;;;;20.21;35.81;101817.59;5042830;28;45690;-81
2022/04/27 12:28:27;;;;;;;;;23.25;18.75;;;;;20.20;35.18;101775.88;5040148;28;45186;-82
2022/04/27 12:31:03;;;;;;;;;19.00;19.00;;;;;20.60;34.55;101805.78;5047751;28;45316;-80
2022/04/27 12:33:34;;;;;;;;;19.75;17.50;;;;;20.63;34.15;101800.13;5054561;28;45250;-82
2022/04/27 12:38:56;;;;;;;;;19.00;17.50;;;;;21.53;33.80;101803.44;5055044;28;45233;-80
2022/04/27 12:41:31;;;;;;;;;19.00;18.75;;;;;21.96;33.00;101807.50;5037372;28;45379;-82
2022/04/27 12:44:11;;;;;;;;;24.75;21.00;;;;;21.91;32.26;101758.72;5037771;28;45604;-82
2022/04/27 12:46:40;;;;;;;;;19.50;19.25;;;;;22.59;31.23;101810.72;5054402;28;46512;-83
2022/04/27 12:49:07;;;;;;;;;19.25;17.75;;;;;22.71;31.54;101802.53;5036205;28;45370;-82
2022/04/27 12:51:35;;;;;;;;;21.25;18.75;;;;;22.77;30.74;101792.00;5054323;28;45455;-81
2022/04/27 12:54:02;;;;;;;;;19.00;18.50;;;;;23.18;30.46;101794.09;5049607;28;45388;-81
2022/04/27 12:56:36;;;;;;;;;20.75;18.75;;;;;23.60;30.20;101794.31;5034303;28;45352;-82
2022/04/27 12:59:04;;;;;;;;;20.50;18.50;;;;;23.95;29.80;101794.06;5033031;28;45530;-82
2022/04/27 13:01:29;;;;;;;;;22.75;21.50;;;;;24.07;29.10;101790.28;5045612;28;45450;-82
2022/04/27 13:03:55;;;;;;;;;19.75;17.50;;;;;24.06;29.46;101755.66;5035099;28;45485;-82
2022/04/27 13:06:22;;;;;;;;;20.25;20.25;;;;;24.47;29.25;101777.59;5034157;28;45809;-84
2022/04/27 13:08:49;;;;;;;;;19.25;18.75;;;;;24.10;28.46;101749.75;5039028;28;45400;-83
2022/04/27 13:14:16;;;;;;;;;20.00;18.25;;;;;24.07;28.90;101771.94;4981387;28;45361;-81
2022/04/27 13:16:41;;;;;;;;;17.00;17.00;;;;;24.23;28.33;101727.69;5031319;28;45305;-81
2022/04/27 13:19:07;;;;;;;;;17.00;16.50;;;;;24.63;28.13;101757.03;5033432;28;45447;-83
2022/04/27 13:21:32;;;;;;;;;17.75;17.75;;;;;24.45;27.88;101722.03;5016428;28;45408;-84
2022/04/27 13:23:58;;;;;;;;;15.50;14.50;;;;;25.16;27.75;101739.41;5054075;28;45498;-82
2022/04/27 13:26:23;;;;;;;;;17.75;17.75;;;;;25.90;27.05;101714.19;5038974;28;46205;-83
2022/04/27 13:28:48;;;;;;;;;19.75;19.25;;;;;26.68;25.52;101719.38;5038326;28;45210;-84
2022/04/27 13:31:14;;;;;;;;;22.50;18.75;;;;;26.97;24.90;101748.66;5050382;28;45363;-81
2022/04/27 13:33:39;;;;;;;;;19.25;17.50;;;;;26.39;25.81;101737.84;5036740;28;45594;-82
2022/04/27 13:36:04;;;;;;;;;19.25;17.50;;;;;25.82;26.22;101706.66;5018840;28;46141;-82
2022/04/27 13:38:30;;;;;;;;;22.25;20.00;;;;;26.50;25.58;101745.94;5019283;28;45650;-82
2022/04/27 13:40:55;;;;;;;;;19.75;18.25;;;;;27.22;24.98;101730.59;5020031;28;45521;-83
2022/04/27 13:43:21;;;;;;;;;14.50;14.50;;;;;27.93;24.06;101716.84;5037214;28;45333;-83
2022/04/27 13:45:46;;;;;;;;;18.50;16.25;;;;;28.77;22.93;101741.97;5018373;28;46045;-83
2022/04/27 13:48:13;;;;;;;;;19.25;16.75;;;;;29.22;22.93;101728.72;5036740;28;45426;-85
2022/04/27 13:50:39;;;;;;;;;17.50;15.50;;;;;29.47;22.54;101739.84;5036404;28;45300;-82
2022/04/27 13:53:05;;;;;;;;;18.50;14.25;;;;;29.82;21.53;101741.47;5036970;28;45613;-82
2022/04/27 13:55:32;;;;;;;;;20.75;17.75;;;;;29.68;21.61;101724.53;5039595;28;45431;-82
2022/04/27 13:57:58;;;;;;;;;17.25;17.25;;;;;29.62;21.71;101711.38;5036837;28;45294;-82
2022/04/27 14:00:23;;;;;;;;;20.25;17.50;;;;;29.75;21.62;101730.25;5038218;28;45334;-84
2022/04/27 14:02:50;;;;;;;;;16.50;16.25;;;;;29.50;22.13;101729.34;5035948;28;45372;-81
2022/04/27 14:05:15;;;;;;;;;18.50;18.50;;;;;29.46;22.03;101719.66;5018828;28;47150;-84
2022/04/27 14:07:44;;;;;;;;;19.50;15.50;;;;;29.15;22.58;101730.41;5047525;28;45349;-82
2022/04/27 14:10:11;;;;;;;;;18.00;17.00;;;;;28.48;22.33;101709.19;5051063;28;45450;-84
2022/04/27 14:15:20;;;;;;;;;13.75;13.75;;;;;28.31;23.08;101715.63;5043855;28;45327;-81
2022/04/27 14:20:31;;;;;;;;;17.50;15.00;;;;;28.78;22.38;101714.22;5056333;28;45354;-82
2022/04/27 14:22:56;;;;;;;;;15.75;15.75;;;;;29.05;22.46;101695.69;5027449;28;47110;-81
2022/04/27 14:25:22;;;;;;;;;17.75;15.50;;;;;29.54;21.74;101721.56;5047473;28;45516;-81
2022/04/27 14:27:49;;;;;;;;;19.75;15.25;;;;;29.64;21.25;101694.63;5047281;28;45356;-81
2022/04/27 14:30:15;;;;;;;;;18.25;15.50;;;;;29.91;21.24;101694.31;5036627;28;45324;-82
2022/04/27 14:32:41;;;;;;;;;14.75;14.75;;;;;30.12;20.58;101687.38;5035911;28;45380;-81
2022/04/27 14:35:06;;;;;;;;;16.00;15.75;;;;;30.25;20.44;101704.31;5036383;28;46215;-81
2022/04/27 14:37:32;;;;;;;;;16.75;15.50;;;;;29.94;20.35;101698.66;5035526;28;45439;-81
2022/04/27 14:39:57;;;;;;;;;17.00;17.00;;;;;29.40;20.53;101700.13;5035632;28;45596;-81
2022/04/27 14:42:23;;;;;;;;;14.75;14.75;;;;;28.90;21.46;101676.16;5035773;28;46108;-82
2022/04/27 14:44:48;;;;;;;;;14.00;14.00;;;;;28.72;21.98;101672.56;5017417;28;48007;-82
2022/04/27 14:47:13;;;;;;;;;16.25;16.25;;;;;28.87;21.84;101684.75;5036030;28;45507;-81
2022/04/27 14:49:39;;;;;;;;;14.50;13.00;;;;;29.02;21.63;101680.31;5036216;28;45692;-84
2022/04/27 14:52:07;;;;;;;;;18.50;15.25;;;;;29.13;22.24;101681.91;5018314;28;46966;-83
2022/04/27 14:54:32;;;;;;;;;15.75;15.25;;;;;28.94;22.07;101700.47;5037206;28;46768;-81
2022/04/27 14:56:57;;;;;;;;;14.00;13.00;;;;;28.54;22.38;101676.28;5035672;28;45321;-83
2022/04/27 14:59:23;;;;;;;;;17.25;17.00;;;;;28.44;23.30;101674.66;5035999;28;45341;-82
2022/04/27 15:01:48;;;;;;;;;13.25;12.25;;;;;28.46;22.68;101670.72;5034929;28;45494;-82
2022/04/27 15:04:15;;;;;;;;;12.00;12.00;;;;;28.24;22.36;101668.53;5024045;28;47176;-81
2022/04/27 15:06:40;;;;;;;;;13.75;13.75;;;;;28.29;23.06;101692.88;5035447;28;45470;-81
2022/04/27 15:09:06;;;;;;;;;12.50;12.50;;;;;28.42;23.01;101693.28;5035518;28;45435;-82
2022/04/27 15:11:32;;;;;;;;;17.00;14.00;;;;;28.35;22.26;101648.06;5035268;28;45501;-82
2022/04/27 15:13:57;;;;;;;;;13.00;12.50;;;;;28.75;22.06;101684.13;5035242;28;46213;-80
2022/04/27 15:16:23;;;;;;;;;13.50;13.50;;;;;28.89;22.21;101663.38;5034965;28;45616;-81
2022/04/27 15:18:48;;;;;;;;;15.75;15.75;;;;;28.98;22.06;101684.44;5034542;28;45585;-84
2022/04/27 15:23:58;;;;;;;;;17.50;14.50;;;;;28.41;22.63;101669.50;5036729;28;45815;-83
2022/04/27 15:26:58;;;;;;;;;13.25;11.75;;;;;27.85;23.46;101637.72;5036042;28;45535;-83
2022/04/27 15:29:08;;;;;;;;;15.25;15.00;;;;;27.67;23.43;101680.97;5014257;28;45614;-81
2022/04/27 15:31:34;;;;;;;;;15.25;12.00;;;;;27.32;23.26;101685.41;5014630;28;45443;-79
2022/04/27 15:33:59;;;;;;;;;16.50;13.75;;;;;26.94;23.69;101681.06;5014637;28;46167;-81
2022/04/27 15:36:24;;;;;;;;;15.00;13.75;;;;;26.78;24.19;101688.22;5013945;28;45791;-79
2022/04/27 15:38:50;;;;;;;;;14.25;13.50;;;;;26.80;24.47;101670.50;5015082;28;45599;-78
2022/04/27 15:41:16;;;;;;;;;18.50;16.75;;;;;27.03;23.96;101671.88;5021137;28;45646;-77
2022/04/27 15:43:41;;;;;;;;;17.00;16.25;;;;;27.19;23.92;101654.66;5021344;28;45512;-80
2022/04/27 15:46:07;;;;;;;;;11.00;10.75;;;;;27.33;23.81;101642.22;5015102;28;45221;-78
2022/04/27 15:48:32;;;;;;;;;13.00;13.00;;;;;27.72;23.17;101664.84;5015257;28;45455;-78
2022/04/27 15:50:58;;;;;;;;;14.75;12.75;;;;;27.88;23.07;101676.00;5013290;28;45673;-77
2022/04/27 15:53:23;;;;;;;;;12.75;12.25;;;;;27.88;23.34;101664.97;5017551;28;45937;-77
2022/04/27 15:55:49;;;;;;;;;13.50;12.50;;;;;27.65;23.49;101678.38;5007363;28;45404;-78
2022/04/27 15:58:17;;;;;;;;;12.50;12.50;;;;;27.22;23.63;101673.59;5032557;28;45189;-78
2022/04/27 16:00:42;;;;;;;;;12.00;12.00;;;;;27.04;24.29;101672.75;5033510;28;45363;-79
2022/04/27 16:03:09;;;;;;;;;14.00;13.50;;;;;27.08;23.87;101674.16;5034104;28;46094;-79
2022/04/27 16:05:35;;;;;;;;;11.00;11.00;;;;;27.13;23.58;101658.06;5034368;28;45317;-79